sensor_id;sensor_type;location;lat;lon;timestamp;P1;durP1;ratioP1;P2;durP2;ratioP2
5157;SDS011;2598;52.364;9.772;2023-03-14T00:02:19;8.97;;;1.30;;
5157;SDS011;2598;52.364;9.772;2023-03-14T00:04:45;6.70;;;1.60;;
5157;SDS011;2598;52.364;9.772;2023-03-14T00:07:11;4.70;;;1.27;;
5157;SDS011;2598;52.364;9.772;2023-03-14T00:09:38;4.87;;;1.53;;
5157;SDS011;2598;52.364;9.772;2023-03-14T00:12:04;6.83;;;1.20;;
5157;SDS011;2598;52.364;9.772;2023-03-14T00:14:30;5.00;;;1.43;;
5157;SDS011;2598;52.364;9.772;2023-03-14T00:16:57;6.90;;;1.13;;
5157;SDS011;2598;52.364;9.772;2023-03-14T00:19:22;4.50;;;1.50;;
5157;SDS011;2598;52.364;9.772;2023-03-14T00:21:48;6.20;;;1.30;;
5157;SDS011;2598;52.364;9.772;2023-03-14T00:24:15;5.00;;;1.30;;
5157;SDS011;2598;52.364;9.772;2023-03-14T00:26:40;3.90;;;1.23;;
5157;SDS011;2598;52.364;9.772;2023-03-14T00:29:06;5.00;;;1.70;;
5157;SDS011;2598;52.364;9.772;2023-03-14T00:31:32;5.27;;;1.20;;
5157;SDS011;2598;52.364;9.772;2023-03-14T00:34:00;5.60;;;1.70;;
5157;SDS011;2598;52.364;9.772;2023-03-14T00:36:26;5.27;;;1.50;;
5157;SDS011;2598;52.364;9.772;2023-03-14T00:38:52;9.97;;;1.33;;
5157;SDS011;2598;52.364;9.772;2023-03-14T00:41:19;6.63;;;1.70;;
5157;SDS011;2598;52.364;9.772;2023-03-14T00:43:47;6.60;;;1.50;;
5157;SDS011;2598;52.364;9.772;2023-03-14T00:46:13;5.90;;;1.50;;
5157;SDS011;2598;52.364;9.772;2023-03-14T00:48:39;5.73;;;1.50;;
5157;SDS011;2598;52.364;9.772;2023-03-14T00:51:06;6.10;;;1.70;;
5157;SDS011;2598;52.364;9.772;2023-03-14T00:53:34;4.40;;;1.60;;
5157;SDS011;2598;52.364;9.772;2023-03-14T00:56:05;4.60;;;1.23;;
5157;SDS011;2598;52.364;9.772;2023-03-14T00:58:31;4.70;;;1.40;;
5157;SDS011;2598;52.364;9.772;2023-03-14T01:00:57;7.63;;;2.10;;
5157;SDS011;2598;52.364;9.772;2023-03-14T01:03:23;7.67;;;1.63;;
5157;SDS011;2598;52.364;9.772;2023-03-14T01:05:49;4.77;;;1.50;;
5157;SDS011;2598;52.364;9.772;2023-03-14T01:08:15;4.80;;;1.20;;
5157;SDS011;2598;52.364;9.772;2023-03-14T01:10:41;4.33;;;1.10;;
5157;SDS011;2598;52.364;9.772;2023-03-14T01:13:09;4.50;;;1.50;;
5157;SDS011;2598;52.364;9.772;2023-03-14T01:15:35;6.87;;;1.70;;
5157;SDS011;2598;52.364;9.772;2023-03-14T01:18:02;4.73;;;1.60;;
5157;SDS011;2598;52.364;9.772;2023-03-14T01:20:28;14.73;;;1.57;;
5157;SDS011;2598;52.364;9.772;2023-03-14T01:22:54;9.80;;;1.60;;
5157;SDS011;2598;52.364;9.772;2023-03-14T01:25:20;7.20;;;2.10;;
5157;SDS011;2598;52.364;9.772;2023-03-14T01:27:46;5.60;;;1.40;;
5157;SDS011;2598;52.364;9.772;2023-03-14T01:30:12;8.10;;;1.70;;
5157;SDS011;2598;52.364;9.772;2023-03-14T01:32:39;5.70;;;1.50;;
5157;SDS011;2598;52.364;9.772;2023-03-14T01:35:05;4.83;;;1.00;;
5157;SDS011;2598;52.364;9.772;2023-03-14T01:37:31;6.80;;;1.43;;
5157;SDS011;2598;52.364;9.772;2023-03-14T01:39:57;6.97;;;1.50;;
5157;SDS011;2598;52.364;9.772;2023-03-14T01:42:23;9.97;;;1.30;;
5157;SDS011;2598;52.364;9.772;2023-03-14T01:44:56;6.60;;;1.20;;
5157;SDS011;2598;52.364;9.772;2023-03-14T01:47:23;8.60;;;1.30;;
5157;SDS011;2598;52.364;9.772;2023-03-14T01:50:03;7.63;;;1.50;;
5157;SDS011;2598;52.364;9.772;2023-03-14T01:52:31;5.77;;;1.40;;
5157;SDS011;2598;52.364;9.772;2023-03-14T01:55:02;5.00;;;1.40;;
5157;SDS011;2598;52.364;9.772;2023-03-14T01:57:30;6.43;;;1.33;;
5157;SDS011;2598;52.364;9.772;2023-03-14T02:02:24;4.80;;;1.30;;
5157;SDS011;2598;52.364;9.772;2023-03-14T02:04:52;5.30;;;1.40;;
5157;SDS011;2598;52.364;9.772;2023-03-14T02:07:27;6.73;;;1.27;;
5157;SDS011;2598;52.364;9.772;2023-03-14T02:09:55;5.43;;;1.53;;
5157;SDS011;2598;52.364;9.772;2023-03-14T02:12:22;3.60;;;1.00;;
5157;SDS011;2598;52.364;9.772;2023-03-14T02:14:48;5.10;;;1.40;;
5157;SDS011;2598;52.364;9.772;2023-03-14T02:17:14;5.23;;;1.60;;
5157;SDS011;2598;52.364;9.772;2023-03-14T02:20:00;7.30;;;1.53;;
5157;SDS011;2598;52.364;9.772;2023-03-14T02:22:30;7.73;;;1.70;;
5157;SDS011;2598;52.364;9.772;2023-03-14T02:27:22;4.57;;;1.40;;
5157;SDS011;2598;52.364;9.772;2023-03-14T02:29:49;5.83;;;1.40;;
5157;SDS011;2598;52.364;9.772;2023-03-14T02:32:17;4.57;;;1.50;;
5157;SDS011;2598;52.364;9.772;2023-03-14T02:34:43;4.83;;;1.40;;
5157;SDS011;2598;52.364;9.772;2023-03-14T02:37:11;4.50;;;1.27;;
5157;SDS011;2598;52.364;9.772;2023-03-14T02:39:38;5.63;;;1.73;;
5157;SDS011;2598;52.364;9.772;2023-03-14T02:42:05;5.93;;;1.60;;
5157;SDS011;2598;52.364;9.772;2023-03-14T02:44:31;5.43;;;1.53;;
5157;SDS011;2598;52.364;9.772;2023-03-14T02:46:57;4.83;;;1.10;;
5157;SDS011;2598;52.364;9.772;2023-03-14T02:49:23;6.37;;;1.30;;
5157;SDS011;2598;52.364;9.772;2023-03-14T02:51:49;5.70;;;1.47;;
5157;SDS011;2598;52.364;9.772;2023-03-14T02:54:16;9.43;;;1.50;;
5157;SDS011;2598;52.364;9.772;2023-03-14T02:56:43;7.23;;;1.50;;
5157;SDS011;2598;52.364;9.772;2023-03-14T02:59:09;6.10;;;1.33;;
5157;SDS011;2598;52.364;9.772;2023-03-14T03:01:35;7.60;;;1.10;;
5157;SDS011;2598;52.364;9.772;2023-03-14T03:04:01;6.60;;;1.50;;
5157;SDS011;2598;52.364;9.772;2023-03-14T03:06:27;6.23;;;1.53;;
5157;SDS011;2598;52.364;9.772;2023-03-14T03:08:52;6.17;;;1.43;;
5157;SDS011;2598;52.364;9.772;2023-03-14T03:11:18;6.50;;;1.50;;
5157;SDS011;2598;52.364;9.772;2023-03-14T03:13:44;4.90;;;1.30;;
5157;SDS011;2598;52.364;9.772;2023-03-14T03:16:10;6.60;;;1.40;;
5157;SDS011;2598;52.364;9.772;2023-03-14T03:18:38;5.17;;;1.20;;
5157;SDS011;2598;52.364;9.772;2023-03-14T03:21:04;6.23;;;1.13;;
5157;SDS011;2598;52.364;9.772;2023-03-14T03:23:32;5.50;;;1.63;;
5157;SDS011;2598;52.364;9.772;2023-03-14T03:25:58;9.20;;;1.60;;
5157;SDS011;2598;52.364;9.772;2023-03-14T03:28:24;6.10;;;1.50;;
5157;SDS011;2598;52.364;9.772;2023-03-14T03:30:50;4.40;;;1.47;;
5157;SDS011;2598;52.364;9.772;2023-03-14T03:33:16;11.17;;;1.50;;
5157;SDS011;2598;52.364;9.772;2023-03-14T03:35:46;5.83;;;1.40;;
5157;SDS011;2598;52.364;9.772;2023-03-14T03:38:12;11.27;;;1.30;;
5157;SDS011;2598;52.364;9.772;2023-03-14T03:40:38;6.63;;;1.20;;
5157;SDS011;2598;52.364;9.772;2023-03-14T03:43:04;7.50;;;1.40;;
5157;SDS011;2598;52.364;9.772;2023-03-14T03:45:30;5.33;;;1.27;;
5157;SDS011;2598;52.364;9.772;2023-03-14T03:47:56;5.00;;;1.20;;
5157;SDS011;2598;52.364;9.772;2023-03-14T03:50:22;5.77;;;1.60;;
5157;SDS011;2598;52.364;9.772;2023-03-14T03:52:48;4.33;;;1.43;;
5157;SDS011;2598;52.364;9.772;2023-03-14T03:55:14;8.90;;;2.03;;
5157;SDS011;2598;52.364;9.772;2023-03-14T03:57:40;7.03;;;1.40;;
5157;SDS011;2598;52.364;9.772;2023-03-14T04:00:06;5.43;;;1.10;;
5157;SDS011;2598;52.364;9.772;2023-03-14T04:02:36;8.20;;;1.30;;
5157;SDS011;2598;52.364;9.772;2023-03-14T04:05:01;4.20;;;1.00;;
5157;SDS011;2598;52.364;9.772;2023-03-14T04:07:27;5.70;;;1.17;;
5157;SDS011;2598;52.364;9.772;2023-03-14T04:09:53;4.07;;;0.83;;
5157;SDS011;2598;52.364;9.772;2023-03-14T04:12:19;3.90;;;0.90;;
5157;SDS011;2598;52.364;9.772;2023-03-14T04:14:45;4.53;;;0.90;;
5157;SDS011;2598;52.364;9.772;2023-03-14T04:17:12;3.77;;;0.60;;
5157;SDS011;2598;52.364;9.772;2023-03-14T04:19:38;4.43;;;1.00;;
5157;SDS011;2598;52.364;9.772;2023-03-14T04:22:04;4.83;;;1.20;;
5157;SDS011;2598;52.364;9.772;2023-03-14T04:24:30;6.07;;;1.00;;
5157;SDS011;2598;52.364;9.772;2023-03-14T04:26:56;4.10;;;1.10;;
5157;SDS011;2598;52.364;9.772;2023-03-14T04:29:22;4.23;;;1.00;;
5157;SDS011;2598;52.364;9.772;2023-03-14T04:31:48;6.47;;;1.33;;
5157;SDS011;2598;52.364;9.772;2023-03-14T04:34:14;5.47;;;1.00;;
5157;SDS011;2598;52.364;9.772;2023-03-14T04:36:40;4.53;;;0.77;;
5157;SDS011;2598;52.364;9.772;2023-03-14T04:39:06;9.53;;;1.10;;
5157;SDS011;2598;52.364;9.772;2023-03-14T04:41:32;4.80;;;1.03;;
5157;SDS011;2598;52.364;9.772;2023-03-14T04:43:58;5.20;;;0.80;;
5157;SDS011;2598;52.364;9.772;2023-03-14T04:46:24;4.63;;;1.00;;
5157;SDS011;2598;52.364;9.772;2023-03-14T04:48:50;5.93;;;0.87;;
5157;SDS011;2598;52.364;9.772;2023-03-14T04:51:16;4.00;;;0.80;;
5157;SDS011;2598;52.364;9.772;2023-03-14T04:53:42;4.07;;;1.07;;
5157;SDS011;2598;52.364;9.772;2023-03-14T04:56:08;4.17;;;1.00;;
5157;SDS011;2598;52.364;9.772;2023-03-14T04:58:34;4.43;;;0.90;;
5157;SDS011;2598;52.364;9.772;2023-03-14T05:01:04;3.87;;;0.77;;
5157;SDS011;2598;52.364;9.772;2023-03-14T05:03:30;4.63;;;0.80;;
5157;SDS011;2598;52.364;9.772;2023-03-14T05:05:56;4.80;;;0.80;;
5157;SDS011;2598;52.364;9.772;2023-03-14T05:08:23;3.97;;;0.90;;
5157;SDS011;2598;52.364;9.772;2023-03-14T05:10:56;4.43;;;0.90;;
5157;SDS011;2598;52.364;9.772;2023-03-14T05:13:22;4.20;;;0.80;;
5157;SDS011;2598;52.364;9.772;2023-03-14T05:15:49;6.10;;;0.93;;
5157;SDS011;2598;52.364;9.772;2023-03-14T05:18:15;6.73;;;0.90;;
5157;SDS011;2598;52.364;9.772;2023-03-14T05:20:41;4.40;;;0.90;;
5157;SDS011;2598;52.364;9.772;2023-03-14T05:23:10;4.73;;;0.83;;
5157;SDS011;2598;52.364;9.772;2023-03-14T05:25:36;4.00;;;0.90;;
5157;SDS011;2598;52.364;9.772;2023-03-14T05:28:02;5.60;;;0.70;;
5157;SDS011;2598;52.364;9.772;2023-03-14T05:30:28;5.30;;;0.90;;
5157;SDS011;2598;52.364;9.772;2023-03-14T05:32:55;9.00;;;1.30;;
5157;SDS011;2598;52.364;9.772;2023-03-14T05:35:21;5.20;;;1.00;;
5157;SDS011;2598;52.364;9.772;2023-03-14T05:37:47;5.93;;;0.90;;
5157;SDS011;2598;52.364;9.772;2023-03-14T05:40:14;6.00;;;0.83;;
5157;SDS011;2598;52.364;9.772;2023-03-14T05:42:39;5.40;;;0.90;;
5157;SDS011;2598;52.364;9.772;2023-03-14T05:45:06;7.20;;;1.00;;
5157;SDS011;2598;52.364;9.772;2023-03-14T05:47:32;6.73;;;1.10;;
5157;SDS011;2598;52.364;9.772;2023-03-14T05:49:58;8.70;;;1.23;;
5157;SDS011;2598;52.364;9.772;2023-03-14T05:52:24;9.23;;;1.70;;
5157;SDS011;2598;52.364;9.772;2023-03-14T05:54:50;6.40;;;1.10;;
5157;SDS011;2598;52.364;9.772;2023-03-14T05:57:16;6.87;;;2.20;;
5157;SDS011;2598;52.364;9.772;2023-03-14T05:59:42;7.30;;;1.20;;
5157;SDS011;2598;52.364;9.772;2023-03-14T06:02:08;4.80;;;1.10;;
5157;SDS011;2598;52.364;9.772;2023-03-14T06:04:34;5.23;;;1.20;;
5157;SDS011;2598;52.364;9.772;2023-03-14T06:07:00;8.90;;;1.20;;
5157;SDS011;2598;52.364;9.772;2023-03-14T06:09:26;5.50;;;1.20;;
5157;SDS011;2598;52.364;9.772;2023-03-14T06:11:51;8.63;;;1.70;;
5157;SDS011;2598;52.364;9.772;2023-03-14T06:14:18;4.90;;;1.27;;
5157;SDS011;2598;52.364;9.772;2023-03-14T06:16:44;7.50;;;1.33;;
5157;SDS011;2598;52.364;9.772;2023-03-14T06:19:09;6.70;;;1.10;;
5157;SDS011;2598;52.364;9.772;2023-03-14T06:21:36;6.93;;;1.20;;
5157;SDS011;2598;52.364;9.772;2023-03-14T06:24:02;6.13;;;1.13;;
5157;SDS011;2598;52.364;9.772;2023-03-14T06:26:29;6.27;;;1.20;;
5157;SDS011;2598;52.364;9.772;2023-03-14T06:28:55;6.37;;;1.40;;
5157;SDS011;2598;52.364;9.772;2023-03-14T06:31:21;6.53;;;0.97;;
5157;SDS011;2598;52.364;9.772;2023-03-14T06:33:47;6.60;;;1.57;;
5157;SDS011;2598;52.364;9.772;2023-03-14T06:36:12;10.23;;;1.60;;
5157;SDS011;2598;52.364;9.772;2023-03-14T06:38:38;6.40;;;1.07;;
5157;SDS011;2598;52.364;9.772;2023-03-14T06:41:05;5.40;;;1.63;;
5157;SDS011;2598;52.364;9.772;2023-03-14T06:43:31;7.57;;;1.10;;
5157;SDS011;2598;52.364;9.772;2023-03-14T06:45:57;6.97;;;1.40;;
5157;SDS011;2598;52.364;9.772;2023-03-14T06:48:23;5.07;;;1.20;;
5157;SDS011;2598;52.364;9.772;2023-03-14T06:50:49;5.53;;;1.47;;
5157;SDS011;2598;52.364;9.772;2023-03-14T06:53:15;6.57;;;1.27;;
5157;SDS011;2598;52.364;9.772;2023-03-14T06:55:41;5.17;;;1.10;;
5157;SDS011;2598;52.364;9.772;2023-03-14T06:58:08;4.90;;;1.00;;
5157;SDS011;2598;52.364;9.772;2023-03-14T07:00:34;5.00;;;0.97;;
5157;SDS011;2598;52.364;9.772;2023-03-14T07:03:00;7.00;;;1.30;;
5157;SDS011;2598;52.364;9.772;2023-03-14T07:05:26;4.90;;;1.00;;
5157;SDS011;2598;52.364;9.772;2023-03-14T07:07:52;5.10;;;1.10;;
5157;SDS011;2598;52.364;9.772;2023-03-14T07:10:18;4.87;;;1.00;;
5157;SDS011;2598;52.364;9.772;2023-03-14T07:12:44;4.17;;;0.83;;
5157;SDS011;2598;52.364;9.772;2023-03-14T07:15:10;4.93;;;0.90;;
5157;SDS011;2598;52.364;9.772;2023-03-14T07:17:36;4.13;;;0.70;;
5157;SDS011;2598;52.364;9.772;2023-03-14T07:20:02;6.00;;;0.97;;
5157;SDS011;2598;52.364;9.772;2023-03-14T07:22:32;4.00;;;0.83;;
5157;SDS011;2598;52.364;9.772;2023-03-14T07:24:58;5.93;;;0.77;;
5157;SDS011;2598;52.364;9.772;2023-03-14T07:27:24;4.90;;;0.90;;
5157;SDS011;2598;52.364;9.772;2023-03-14T07:29:50;4.27;;;0.80;;
5157;SDS011;2598;52.364;9.772;2023-03-14T07:32:16;4.60;;;0.97;;
5157;SDS011;2598;52.364;9.772;2023-03-14T07:34:42;4.13;;;0.80;;
5157;SDS011;2598;52.364;9.772;2023-03-14T07:37:08;4.80;;;0.97;;
5157;SDS011;2598;52.364;9.772;2023-03-14T07:39:34;3.90;;;0.80;;
5157;SDS011;2598;52.364;9.772;2023-03-14T07:42:01;4.47;;;0.80;;
5157;SDS011;2598;52.364;9.772;2023-03-14T07:44:27;5.20;;;0.80;;
5157;SDS011;2598;52.364;9.772;2023-03-14T07:46:53;4.03;;;0.73;;
5157;SDS011;2598;52.364;9.772;2023-03-14T07:49:19;3.30;;;0.70;;
5157;SDS011;2598;52.364;9.772;2023-03-14T07:51:48;5.10;;;1.00;;
5157;SDS011;2598;52.364;9.772;2023-03-14T07:54:15;4.17;;;0.70;;
5157;SDS011;2598;52.364;9.772;2023-03-14T07:56:41;4.70;;;0.80;;
5157;SDS011;2598;52.364;9.772;2023-03-14T07:59:07;3.60;;;0.90;;
5157;SDS011;2598;52.364;9.772;2023-03-14T08:01:33;4.10;;;0.70;;
5157;SDS011;2598;52.364;9.772;2023-03-14T08:03:59;3.80;;;0.73;;
5157;SDS011;2598;52.364;9.772;2023-03-14T08:06:25;3.60;;;0.80;;
5157;SDS011;2598;52.364;9.772;2023-03-14T08:08:51;6.43;;;1.03;;
5157;SDS011;2598;52.364;9.772;2023-03-14T08:11:17;4.50;;;0.70;;
5157;SDS011;2598;52.364;9.772;2023-03-14T08:13:42;5.30;;;0.80;;
5157;SDS011;2598;52.364;9.772;2023-03-14T08:16:14;5.33;;;0.93;;
5157;SDS011;2598;52.364;9.772;2023-03-14T08:18:40;3.90;;;0.90;;
5157;SDS011;2598;52.364;9.772;2023-03-14T08:21:06;4.77;;;0.83;;
5157;SDS011;2598;52.364;9.772;2023-03-14T08:23:32;5.00;;;0.90;;
5157;SDS011;2598;52.364;9.772;2023-03-14T08:25:58;5.40;;;0.70;;
5157;SDS011;2598;52.364;9.772;2023-03-14T08:28:24;3.33;;;0.70;;
5157;SDS011;2598;52.364;9.772;2023-03-14T08:30:55;3.60;;;0.70;;
5157;SDS011;2598;52.364;9.772;2023-03-14T08:33:21;5.57;;;0.80;;
5157;SDS011;2598;52.364;9.772;2023-03-14T08:35:47;3.50;;;0.70;;
5157;SDS011;2598;52.364;9.772;2023-03-14T08:38:13;3.43;;;0.70;;
5157;SDS011;2598;52.364;9.772;2023-03-14T08:40:39;3.30;;;0.70;;
5157;SDS011;2598;52.364;9.772;2023-03-14T08:43:05;3.60;;;0.80;;
5157;SDS011;2598;52.364;9.772;2023-03-14T08:45:31;4.40;;;0.97;;
5157;SDS011;2598;52.364;9.772;2023-03-14T08:47:57;3.50;;;0.70;;
5157;SDS011;2598;52.364;9.772;2023-03-14T08:50:23;5.43;;;0.80;;
5157;SDS011;2598;52.364;9.772;2023-03-14T08:52:50;3.80;;;0.83;;
5157;SDS011;2598;52.364;9.772;2023-03-14T08:55:16;3.70;;;0.80;;
5157;SDS011;2598;52.364;9.772;2023-03-14T08:57:42;3.80;;;0.83;;
5157;SDS011;2598;52.364;9.772;2023-03-14T09:00:08;3.47;;;0.70;;
5157;SDS011;2598;52.364;9.772;2023-03-14T09:02:39;3.40;;;0.70;;
5157;SDS011;2598;52.364;9.772;2023-03-14T09:05:06;3.77;;;0.77;;
5157;SDS011;2598;52.364;9.772;2023-03-14T09:07:32;3.60;;;0.90;;
5157;SDS011;2598;52.364;9.772;2023-03-14T09:09:58;4.03;;;0.73;;
5157;SDS011;2598;52.364;9.772;2023-03-14T09:12:24;3.60;;;0.70;;
5157;SDS011;2598;52.364;9.772;2023-03-14T09:14:50;4.93;;;0.70;;
5157;SDS011;2598;52.364;9.772;2023-03-14T09:17:16;4.63;;;1.00;;
5157;SDS011;2598;52.364;9.772;2023-03-14T09:19:42;3.27;;;0.60;;
5157;SDS011;2598;52.364;9.772;2023-03-14T09:22:08;4.07;;;0.77;;
5157;SDS011;2598;52.364;9.772;2023-03-14T09:24:34;3.60;;;0.80;;
5157;SDS011;2598;52.364;9.772;2023-03-14T09:27:00;3.80;;;0.93;;
5157;SDS011;2598;52.364;9.772;2023-03-14T09:29:26;9.80;;;0.90;;
5157;SDS011;2598;52.364;9.772;2023-03-14T09:31:52;8.90;;;0.90;;
5157;SDS011;2598;52.364;9.772;2023-03-14T09:34:18;4.00;;;1.10;;
5157;SDS011;2598;52.364;9.772;2023-03-14T09:36:44;4.17;;;0.87;;
5157;SDS011;2598;52.364;9.772;2023-03-14T09:39:11;5.67;;;0.93;;
5157;SDS011;2598;52.364;9.772;2023-03-14T09:41:37;4.80;;;1.00;;
5157;SDS011;2598;52.364;9.772;2023-03-14T09:47:03;3.77;;;1.07;;
5157;SDS011;2598;52.364;9.772;2023-03-14T09:49:30;5.00;;;0.87;;
5157;SDS011;2598;52.364;9.772;2023-03-14T09:51:57;3.50;;;0.70;;
5157;SDS011;2598;52.364;9.772;2023-03-14T09:56:50;9.87;;;1.20;;
5157;SDS011;2598;52.364;9.772;2023-03-14T09:59:17;4.95;;;1.10;;
5157;SDS011;2598;52.364;9.772;2023-03-14T10:01:43;4.23;;;0.90;;
5157;SDS011;2598;52.364;9.772;2023-03-14T10:04:10;5.27;;;1.20;;
5157;SDS011;2598;52.364;9.772;2023-03-14T10:06:38;4.27;;;0.90;;
5157;SDS011;2598;52.364;9.772;2023-03-14T10:09:04;4.63;;;0.70;;
5157;SDS011;2598;52.364;9.772;2023-03-14T10:11:31;3.80;;;0.80;;
5157;SDS011;2598;52.364;9.772;2023-03-14T10:14:04;3.47;;;0.80;;
5157;SDS011;2598;52.364;9.772;2023-03-14T10:16:35;3.50;;;0.87;;
5157;SDS011;2598;52.364;9.772;2023-03-14T10:19:02;4.83;;;0.90;;
5157;SDS011;2598;52.364;9.772;2023-03-14T10:21:29;3.67;;;0.90;;
5157;SDS011;2598;52.364;9.772;2023-03-14T10:24:06;4.07;;;1.07;;
5157;SDS011;2598;52.364;9.772;2023-03-14T10:26:34;3.50;;;0.80;;
5157;SDS011;2598;52.364;9.772;2023-03-14T10:29:08;5.73;;;1.27;;
5157;SDS011;2598;52.364;9.772;2023-03-14T10:34:22;3.90;;;1.10;;
5157;SDS011;2598;52.364;9.772;2023-03-14T10:36:51;3.83;;;1.03;;
5157;SDS011;2598;52.364;9.772;2023-03-14T10:41:47;3.90;;;0.90;;
5157;SDS011;2598;52.364;9.772;2023-03-14T10:44:14;5.30;;;0.90;;
5157;SDS011;2598;52.364;9.772;2023-03-14T10:46:40;4.60;;;1.20;;
5157;SDS011;2598;52.364;9.772;2023-03-14T10:49:06;5.07;;;0.80;;
5157;SDS011;2598;52.364;9.772;2023-03-14T10:51:32;4.77;;;0.90;;
5157;SDS011;2598;52.364;9.772;2023-03-14T10:54:03;3.90;;;0.90;;
5157;SDS011;2598;52.364;9.772;2023-03-14T10:56:34;5.97;;;1.10;;
5157;SDS011;2598;52.364;9.772;2023-03-14T10:59:00;6.53;;;0.93;;
5157;SDS011;2598;52.364;9.772;2023-03-14T11:06:34;4.00;;;1.40;;
5157;SDS011;2598;52.364;9.772;2023-03-14T11:09:04;3.70;;;1.17;;
5157;SDS011;2598;52.364;9.772;2023-03-14T11:11:31;4.23;;;1.27;;
5157;SDS011;2598;52.364;9.772;2023-03-14T11:14:03;4.60;;;1.10;;
5157;SDS011;2598;52.364;9.772;2023-03-14T11:19:39;4.30;;;1.17;;
5157;SDS011;2598;52.364;9.772;2023-03-14T11:22:18;3.60;;;0.90;;
5157;SDS011;2598;52.364;9.772;2023-03-14T11:27:17;4.50;;;1.53;;
5157;SDS011;2598;52.364;9.772;2023-03-14T11:29:50;4.13;;;1.43;;
5157;SDS011;2598;52.364;9.772;2023-03-14T11:32:24;5.00;;;1.20;;
5157;SDS011;2598;52.364;9.772;2023-03-14T11:34:54;4.10;;;0.70;;
5157;SDS011;2598;52.364;9.772;2023-03-14T11:37:25;5.90;;;1.00;;
5157;SDS011;2598;52.364;9.772;2023-03-14T11:39:59;3.90;;;1.10;;
5157;SDS011;2598;52.364;9.772;2023-03-14T11:42:26;5.00;;;1.60;;
5157;SDS011;2598;52.364;9.772;2023-03-14T11:44:52;5.10;;;1.30;;
5157;SDS011;2598;52.364;9.772;2023-03-14T11:47:26;4.57;;;1.30;;
5157;SDS011;2598;52.364;9.772;2023-03-14T11:52:32;4.17;;;1.20;;
5157;SDS011;2598;52.364;9.772;2023-03-14T11:55:10;4.00;;;1.40;;
5157;SDS011;2598;52.364;9.772;2023-03-14T11:57:37;4.43;;;1.27;;
5157;SDS011;2598;52.364;9.772;2023-03-14T12:02:43;6.30;;;1.30;;
5157;SDS011;2598;52.364;9.772;2023-03-14T12:05:22;4.60;;;1.37;;
5157;SDS011;2598;52.364;9.772;2023-03-14T12:08:15;4.10;;;1.13;;
5157;SDS011;2598;52.364;9.772;2023-03-14T12:10:49;3.90;;;1.00;;
5157;SDS011;2598;52.364;9.772;2023-03-14T12:13:16;4.57;;;0.60;;
5157;SDS011;2598;52.364;9.772;2023-03-14T12:15:56;5.10;;;1.00;;
5157;SDS011;2598;52.364;9.772;2023-03-14T12:18:27;3.43;;;0.70;;
5157;SDS011;2598;52.364;9.772;2023-03-14T12:21:00;3.33;;;0.70;;
5157;SDS011;2598;52.364;9.772;2023-03-14T12:23:27;7.57;;;0.80;;
5157;SDS011;2598;52.364;9.772;2023-03-14T12:29:23;4.43;;;0.60;;
5157;SDS011;2598;52.364;9.772;2023-03-14T12:34:24;4.03;;;0.77;;
5157;SDS011;2598;52.364;9.772;2023-03-14T12:41:42;3.60;;;0.83;;
5157;SDS011;2598;52.364;9.772;2023-03-14T12:46:58;5.90;;;0.70;;
5157;SDS011;2598;52.364;9.772;2023-03-14T12:49:31;3.50;;;0.70;;
5157;SDS011;2598;52.364;9.772;2023-03-14T12:52:00;3.60;;;0.70;;
5157;SDS011;2598;52.364;9.772;2023-03-14T12:54:34;3.70;;;0.70;;
5157;SDS011;2598;52.364;9.772;2023-03-14T12:57:14;3.87;;;0.83;;
5157;SDS011;2598;52.364;9.772;2023-03-14T13:04:36;5.70;;;1.00;;
5157;SDS011;2598;52.364;9.772;2023-03-14T13:07:03;4.83;;;1.00;;
5157;SDS011;2598;52.364;9.772;2023-03-14T13:12:16;6.20;;;1.40;;
5157;SDS011;2598;52.364;9.772;2023-03-14T13:14:47;5.00;;;0.90;;
5157;SDS011;2598;52.364;9.772;2023-03-14T13:17:14;4.73;;;0.97;;
5157;SDS011;2598;52.364;9.772;2023-03-14T13:19:41;4.10;;;1.30;;
5157;SDS011;2598;52.364;9.772;2023-03-14T13:22:15;6.23;;;1.60;;
5157;SDS011;2598;52.364;9.772;2023-03-14T13:24:42;17.13;;;2.03;;
5157;SDS011;2598;52.364;9.772;2023-03-14T13:27:10;6.73;;;1.60;;
5157;SDS011;2598;52.364;9.772;2023-03-14T13:29:42;10.20;;;1.53;;
5157;SDS011;2598;52.364;9.772;2023-03-14T13:32:21;10.67;;;2.77;;
5157;SDS011;2598;52.364;9.772;2023-03-14T13:34:47;11.97;;;1.97;;
5157;SDS011;2598;52.364;9.772;2023-03-14T13:37:20;8.70;;;1.40;;
5157;SDS011;2598;52.364;9.772;2023-03-14T13:39:51;5.93;;;1.70;;
5157;SDS011;2598;52.364;9.772;2023-03-14T13:42:18;9.57;;;1.67;;
5157;SDS011;2598;52.364;9.772;2023-03-14T13:44:44;5.67;;;1.70;;
5157;SDS011;2598;52.364;9.772;2023-03-14T13:47:12;7.23;;;1.20;;
5157;SDS011;2598;52.364;9.772;2023-03-14T13:49:40;7.70;;;1.40;;
5157;SDS011;2598;52.364;9.772;2023-03-14T13:54:54;13.33;;;2.60;;
5157;SDS011;2598;52.364;9.772;2023-03-14T13:57:20;8.07;;;1.90;;
5157;SDS011;2598;52.364;9.772;2023-03-14T13:59:58;9.33;;;1.57;;
5157;SDS011;2598;52.364;9.772;2023-03-14T14:02:24;12.60;;;1.77;;
5157;SDS011;2598;52.364;9.772;2023-03-14T14:04:50;11.33;;;1.77;;
5157;SDS011;2598;52.364;9.772;2023-03-14T14:07:17;5.80;;;2.23;;
5157;SDS011;2598;52.364;9.772;2023-03-14T14:09:49;9.83;;;1.90;;
5157;SDS011;2598;52.364;9.772;2023-03-14T14:12:17;10.33;;;1.80;;
5157;SDS011;2598;52.364;9.772;2023-03-14T14:14:51;10.43;;;1.70;;
5157;SDS011;2598;52.364;9.772;2023-03-14T14:17:19;10.57;;;2.77;;
5157;SDS011;2598;52.364;9.772;2023-03-14T14:19:46;12.77;;;2.33;;
5157;SDS011;2598;52.364;9.772;2023-03-14T14:22:13;15.03;;;2.17;;
5157;SDS011;2598;52.364;9.772;2023-03-14T14:24:39;12.80;;;2.33;;
5157;SDS011;2598;52.364;9.772;2023-03-14T14:28:13;13.07;;;2.47;;
5157;SDS011;2598;52.364;9.772;2023-03-14T14:30:02;15.20;;;2.30;;
5157;SDS011;2598;52.364;9.772;2023-03-14T14:32:34;11.60;;;2.07;;
5157;SDS011;2598;52.364;9.772;2023-03-14T14:35:01;16.17;;;2.20;;
5157;SDS011;2598;52.364;9.772;2023-03-14T14:37:29;14.70;;;3.07;;
5157;SDS011;2598;52.364;9.772;2023-03-14T14:39:57;15.37;;;2.60;;
5157;SDS011;2598;52.364;9.772;2023-03-14T14:42:28;10.20;;;2.13;;
5157;SDS011;2598;52.364;9.772;2023-03-14T14:44:55;10.07;;;1.40;;
5157;SDS011;2598;52.364;9.772;2023-03-14T14:47:23;17.63;;;2.47;;
5157;SDS011;2598;52.364;9.772;2023-03-14T14:49:50;18.77;;;3.10;;
5157;SDS011;2598;52.364;9.772;2023-03-14T14:55:02;10.43;;;1.60;;
5157;SDS011;2598;52.364;9.772;2023-03-14T14:57:38;10.70;;;1.77;;
5157;SDS011;2598;52.364;9.772;2023-03-14T15:00:06;15.60;;;2.30;;
5157;SDS011;2598;52.364;9.772;2023-03-14T15:02:40;8.50;;;1.50;;
5157;SDS011;2598;52.364;9.772;2023-03-14T15:05:13;11.70;;;1.67;;
5157;SDS011;2598;52.364;9.772;2023-03-14T15:07:40;12.03;;;2.10;;
5157;SDS011;2598;52.364;9.772;2023-03-14T15:10:08;15.80;;;2.13;;
5157;SDS011;2598;52.364;9.772;2023-03-14T15:12:35;9.50;;;1.77;;
5157;SDS011;2598;52.364;9.772;2023-03-14T15:15:01;10.83;;;1.77;;
5157;SDS011;2598;52.364;9.772;2023-03-14T15:17:27;9.80;;;2.00;;
5157;SDS011;2598;52.364;9.772;2023-03-14T15:19:53;10.27;;;1.97;;
5157;SDS011;2598;52.364;9.772;2023-03-14T15:22:20;12.07;;;1.90;;
5157;SDS011;2598;52.364;9.772;2023-03-14T15:24:46;18.93;;;2.50;;
5157;SDS011;2598;52.364;9.772;2023-03-14T15:27:13;8.27;;;1.90;;
5157;SDS011;2598;52.364;9.772;2023-03-14T15:29:40;6.30;;;1.53;;
5157;SDS011;2598;52.364;9.772;2023-03-14T15:32:08;9.77;;;2.20;;
5157;SDS011;2598;52.364;9.772;2023-03-14T15:34:35;14.53;;;2.40;;
5157;SDS011;2598;52.364;9.772;2023-03-14T15:37:01;6.60;;;1.90;;
5157;SDS011;2598;52.364;9.772;2023-03-14T15:39:31;7.67;;;1.20;;
5157;SDS011;2598;52.364;9.772;2023-03-14T15:41:57;11.77;;;2.50;;
5157;SDS011;2598;52.364;9.772;2023-03-14T15:44:23;12.90;;;1.83;;
5157;SDS011;2598;52.364;9.772;2023-03-14T15:46:49;10.10;;;1.97;;
5157;SDS011;2598;52.364;9.772;2023-03-14T15:49:15;15.43;;;1.50;;
5157;SDS011;2598;52.364;9.772;2023-03-14T15:51:41;16.77;;;2.13;;
5157;SDS011;2598;52.364;9.772;2023-03-14T15:54:07;9.63;;;2.13;;
5157;SDS011;2598;52.364;9.772;2023-03-14T15:56:33;12.23;;;2.00;;
5157;SDS011;2598;52.364;9.772;2023-03-14T15:58:59;11.50;;;2.37;;
5157;SDS011;2598;52.364;9.772;2023-03-14T16:01:25;10.07;;;1.93;;
5157;SDS011;2598;52.364;9.772;2023-03-14T16:03:51;11.17;;;1.80;;
5157;SDS011;2598;52.364;9.772;2023-03-14T16:06:17;13.20;;;2.37;;
5157;SDS011;2598;52.364;9.772;2023-03-14T16:08:43;17.40;;;3.00;;
5157;SDS011;2598;52.364;9.772;2023-03-14T16:11:10;16.13;;;2.90;;
5157;SDS011;2598;52.364;9.772;2023-03-14T16:13:37;13.43;;;2.03;;